Terminal Aerodrome Forecast
Issued by NWS

Home | Current Version | Previous Version | Text Only | Print | Product List | Glossary Off
Versions: 1 2 3 4 5 6 7 8 9 10 11 12 13 14 15 16 17 18 19 20 21

000
FTUS42 KMHX 192000 AAA
TAFPGV
TAF AMD
KPGV 192040Z 1921/2018 31007KT P6SM SCT025 BKN035
     FM192200 30008KT P6SM VCTS BKN035CB
     FM200100 36004KT P6SM SCT040 BKN100
     FM200800 01003KT 4SM BR BKN007
     FM201400 02005KT P6SM SCT040
      AMD LTD TO CLD VIS AND WIND=

USA.gov is the U.S. government's official web portal to all federal, state and local government web resources and services.